Atlanta, Georgia
Current Conditions -  °F | °C
As of 2:52 AM on Thursday 18 Dec 2014 (Local Time) from KATL Reporting Station
Overcast Overcast  
Wind Chill: 33°   Ceiling: 20000
Heat Index: 39°   Visibility: 10mi
Dew Point: 32°   Wind: 8mph
Humidity: 76%   Direction: 310°NW
Pressure: 30.13"   Gusts: NA
Location:  33.75°N, 84.39°W
Report Text: KATL 180752Z 31007KT 10SM BKN200 OVC250 04/00 A3013 RMK AO2 SLP206 T00390000
Loading
Personal Weather Stations






























Interactive Weather Map New forecast layout! Learn more

10-Day Weather Forecast

Advertisements
Track Severe Weather on mobile